Alessandro F — IBVQ — position and weather

sailwx.info

Track history (hours):
 
Tides and Currents Weather Stations Pressure Air Temp Water Temp Dewpoint Dewpoint Depression Visibility Wind Speed Wind Dir Waves Ship Positions

Alessandro F

Last reported at 2015-May-14 20:33 UTC. Time now 2015-May-22 13:07 UTC.
Position N 43°07' E 010°04'.

Length 100 m; draft 6 m.

Type: Ship (hazmat cat B). MMSI: 247046400.

Date/timePositionNaut miles runAvg speedWind from/ knotsBaromVisibWave heightAir tempDewpointWater temp
2015-May-14 20:33N 43°07' E 010°04'1413.1
2015-May-14 19:31N 43°20' E 010°08'1212.6
2015-May-14 18:33N 43°31' E 010°14'5 4.3
2015-May-14 17:24N 43°34' E 010°19'0 0.0
2015-May-14 16:15N 43°34' E 010°19'0 0.0
2015-May-14 15:27N 43°34' E 010°19'0 0.0
2015-May-14 14:33N 43°34' E 010°19'0 0.0
2015-May-14 13:24N 43°34' E 010°19'0 0.0
2015-May-14 11:18N 43°34' E 010°19'0 0.0
2015-May-14 10:33N 43°34' E 010°19'0 0.0
2015-May-14 09:33N 43°34' E 010°19'0 0.0
2015-May-14 07:21N 43°34' E 010°19'0 0.0
2015-May-14 05:27N 43°34' E 010°19'0 0.0
2015-May-14 04:33N 43°34' E 010°19'0 0.0
2015-May-14 03:33N 43°34' E 010°19'0 0.0
2015-May-14 02:33N 43°34' E 010°19'0 0.0
2015-May-14 01:21N 43°34' E 010°19'0 0.0
2015-May-14 00:27N 43°34' E 010°19'0 0.0
2015-May-13 23:03N 43°34' E 010°19'0 0.0
2015-May-13 22:24N 43°34' E 010°19'0 0.0
2015-May-13 21:27N 43°34' E 010°19'0 0.0
2015-May-13 20:30N 43°34' E 010°19'0 0.0
2015-May-13 19:18N 43°34' E 010°19'0 0.0
2015-May-13 18:24N 43°34' E 010°19'0 0.0
2015-May-13 17:20N 43°34' E 010°19'0 0.0
2015-May-13 16:23N 43°34' E 010°19'0 0.0
2015-May-13 15:26N 43°34' E 010°19'0 0.0
2015-May-13 14:29N 43°34' E 010°19'0 0.0
2015-May-13 13:32N 43°34' E 010°19'0 0.0
2015-May-13 12:29N 43°34' E 010°19'0 0.0
2015-May-13 11:26N 43°34' E 010°19'0 0.0
2015-May-13 10:32N 43°34' E 010°19'0 0.0
2015-May-13 09:29N 43°34' E 010°19'0 0.0
2015-May-13 08:32N 43°34' E 010°19'0 0.0
2015-May-13 07:32N 43°34' E 010°19'0 0.4
2015-May-13 06:33N 43°34' E 010°19'5 4.5
2015-May-13 05:33N 43°30' E 010°17'0 0.0
2015-May-13 04:31N 43°30' E 010°17'0 0.0
2015-May-13 03:31N 43°30' E 010°17'0 0.0
2015-May-13 02:31N 43°30' E 010°17'0 0.0
2015-May-13 01:31N 43°30' E 010°17'0 0.0
2015-May-13 00:28N 43°30' E 010°17'0 0.1
2015-May-12 23:28N 43°30' E 010°17'0 0.0
2015-May-12 22:31N 43°30' E 010°17'0 0.0
2015-May-12 21:31N 43°30' E 010°17'0 0.0
2015-May-12 20:28N 43°30' E 010°17'0 0.0
2015-May-12 19:31N 43°30' E 010°17'0 0.0
2015-May-12 18:31N 43°30' E 010°17'0 0.0
2015-May-12 17:31N 43°30' E 010°17'0 0.0
2015-May-12 16:31N 43°30' E 010°17'0 0.0
2015-May-12 15:31N 43°30' E 010°17'0 0.0
2015-May-12 14:31N 43°30' E 010°17'0 0.0
2015-May-12 13:31N 43°30' E 010°17'0 0.0
2015-May-12 12:31N 43°30' E 010°17'0 0.0
2015-May-12 11:31N 43°30' E 010°17'0 0.0
2015-May-12 10:25N 43°30' E 010°17'0 0.1
2015-May-12 09:31N 43°30' E 010°17'0 0.0
2015-May-12 08:31N 43°30' E 010°17'0 0.0
2015-May-12 07:31N 43°30' E 010°17'0 0.1
2015-May-12 06:31N 43°30' E 010°17'0 0.0
2015-May-12 05:31N 43°30' E 010°17'0 0.0
2015-May-12 04:28N 43°30' E 010°17'0 0.0
2015-May-12 03:31N 43°30' E 010°17'0 0.0
2015-May-12 02:31N 43°30' E 010°17'0 0.0
2015-May-12 01:31N 43°30' E 010°17'0 0.0
2015-May-12 00:31N 43°30' E 010°17'0 0.0
2015-May-11 23:28N 43°30' E 010°17'0 0.0
2015-May-11 22:31N 43°30' E 010°17'0 0.0
2015-May-11 21:31N 43°30' E 010°17'0 0.0
2015-May-11 20:25N 43°30' E 010°17'0 0.0
2015-May-11 19:28N 43°30' E 010°17'0 0.0
2015-May-11 18:31N 43°30' E 010°17'0 0.0
2015-May-11 17:31N 43°30' E 010°17'0 0.0
2015-May-11 16:31N 43°30' E 010°17'7 7.3
2015-May-11 15:33N 43°24' E 010°12'1110.7
2015-May-11 14:34N 43°15' E 010°04'9 8.9
2015-May-11 13:33N 43°07' E 010°09'8 8.3
2015-May-11 12:33N 43°00' E 010°16'22 6.9
2015-May-11 09:25N 42°53' E 010°44'7 0.2
2015-May-10 04:32N 42°47' E 010°40'1313.4
2015-May-10 03:32N 42°35' E 010°47'12912.9
2015-May-09 17:30N 41°08' E 012°57'3612.4
2015-May-09 14:33N 40°47' E 013°36'1413.3
2015-May-09 13:32N 40°35' E 013°45'1313.2
2015-May-09 12:33N 40°25' E 013°55'1313.0
2015-May-09 11:31N 40°14' E 014°05'209 4.5
2015-May-07 12:33N 37°02' E 015°54'1312.7
2015-May-07 11:33N 36°59' E 016°09'2613.0
2015-May-07 09:32N 36°51' E 016°40'5112.8
2015-May-07 05:33N 36°36' E 017°41'  
2015-May-05 00:26N 33°30' E 031°41'1813.4
2015-May-04 23:06N 33°26' E 032°02'713.0
2015-May-04 22:33N 33°25' E 032°10'1313.3
2015-May-04 21:33N 33°22' E 032°25'  
Track history (hours):
 
Tides and Currents Weather Stations Pressure Air Temp Water Temp Dewpoint Dewpoint Depression Visibility Wind Speed Wind Dir Waves Ship Positions

Alessandro F

Last reported at 2015-May-14 20:33 UTC. Time now 2015-May-22 13:07 UTC.
Position N 43°07' E 010°04'.

Length 100 m; draft 6 m.

Type: Ship (hazmat cat B). MMSI: 247046400.

Date/timePositionNaut miles runAvg speedWind from/ knotsBaromVisibWave heightAir tempDewpointWater temp
2015-May-14 20:33N 43°07' E 010°04'1413.1
2015-May-14 19:31N 43°20' E 010°08'1212.6
2015-May-14 18:33N 43°31' E 010°14'5 4.3
2015-May-14 17:24N 43°34' E 010°19'0 0.0
2015-May-14 16:15N 43°34' E 010°19'0 0.0
2015-May-14 15:27N 43°34' E 010°19'0 0.0
2015-May-14 14:33N 43°34' E 010°19'0 0.0
2015-May-14 13:24N 43°34' E 010°19'0 0.0
2015-May-14 11:18N 43°34' E 010°19'0 0.0
2015-May-14 10:33N 43°34' E 010°19'0 0.0
2015-May-14 09:33N 43°34' E 010°19'0 0.0
2015-May-14 07:21N 43°34' E 010°19'0 0.0
2015-May-14 05:27N 43°34' E 010°19'0 0.0
2015-May-14 04:33N 43°34' E 010°19'0 0.0
2015-May-14 03:33N 43°34' E 010°19'0 0.0
2015-May-14 02:33N 43°34' E 010°19'0 0.0
2015-May-14 01:21N 43°34' E 010°19'0 0.0
2015-May-14 00:27N 43°34' E 010°19'0 0.0
2015-May-13 23:03N 43°34' E 010°19'0 0.0
2015-May-13 22:24N 43°34' E 010°19'0 0.0
2015-May-13 21:27N 43°34' E 010°19'0 0.0
2015-May-13 20:30N 43°34' E 010°19'0 0.0
2015-May-13 19:18N 43°34' E 010°19'0 0.0
2015-May-13 18:24N 43°34' E 010°19'0 0.0
2015-May-13 17:20N 43°34' E 010°19'0 0.0
2015-May-13 16:23N 43°34' E 010°19'0 0.0
2015-May-13 15:26N 43°34' E 010°19'0 0.0
2015-May-13 14:29N 43°34' E 010°19'0 0.0
2015-May-13 13:32N 43°34' E 010°19'0 0.0
2015-May-13 12:29N 43°34' E 010°19'0 0.0
2015-May-13 11:26N 43°34' E 010°19'0 0.0
2015-May-13 10:32N 43°34' E 010°19'0 0.0
2015-May-13 09:29N 43°34' E 010°19'0 0.0
2015-May-13 08:32N 43°34' E 010°19'0 0.0
2015-May-13 07:32N 43°34' E 010°19'0 0.4
2015-May-13 06:33N 43°34' E 010°19'5 4.5
2015-May-13 05:33N 43°30' E 010°17'0 0.0
2015-May-13 04:31N 43°30' E 010°17'0 0.0
2015-May-13 03:31N 43°30' E 010°17'0 0.0
2015-May-13 02:31N 43°30' E 010°17'0 0.0
2015-May-13 01:31N 43°30' E 010°17'0 0.0
2015-May-13 00:28N 43°30' E 010°17'0 0.1
2015-May-12 23:28N 43°30' E 010°17'0 0.0
2015-May-12 22:31N 43°30' E 010°17'0 0.0
2015-May-12 21:31N 43°30' E 010°17'0 0.0
2015-May-12 20:28N 43°30' E 010°17'0 0.0
2015-May-12 19:31N 43°30' E 010°17'0 0.0
2015-May-12 18:31N 43°30' E 010°17'0 0.0
2015-May-12 17:31N 43°30' E 010°17'0 0.0
2015-May-12 16:31N 43°30' E 010°17'0 0.0
2015-May-12 15:31N 43°30' E 010°17'0 0.0
2015-May-12 14:31N 43°30' E 010°17'0 0.0
2015-May-12 13:31N 43°30' E 010°17'0 0.0
2015-May-12 12:31N 43°30' E 010°17'0 0.0
2015-May-12 11:31N 43°30' E 010°17'0 0.0
2015-May-12 10:25N 43°30' E 010°17'0 0.1
2015-May-12 09:31N 43°30' E 010°17'0 0.0
2015-May-12 08:31N 43°30' E 010°17'0 0.0
2015-May-12 07:31N 43°30' E 010°17'0 0.1
2015-May-12 06:31N 43°30' E 010°17'0 0.0
2015-May-12 05:31N 43°30' E 010°17'0 0.0
2015-May-12 04:28N 43°30' E 010°17'0 0.0
2015-May-12 03:31N 43°30' E 010°17'0 0.0
2015-May-12 02:31N 43°30' E 010°17'0 0.0
2015-May-12 01:31N 43°30' E 010°17'0 0.0
2015-May-12 00:31N 43°30' E 010°17'0 0.0
2015-May-11 23:28N 43°30' E 010°17'0 0.0
2015-May-11 22:31N 43°30' E 010°17'0 0.0
2015-May-11 21:31N 43°30' E 010°17'0 0.0
2015-May-11 20:25N 43°30' E 010°17'0 0.0
2015-May-11 19:28N 43°30' E 010°17'0 0.0
2015-May-11 18:31N 43°30' E 010°17'0 0.0
2015-May-11 17:31N 43°30' E 010°17'0 0.0
2015-May-11 16:31N 43°30' E 010°17'7 7.3
2015-May-11 15:33N 43°24' E 010°12'1110.7
2015-May-11 14:34N 43°15' E 010°04'9 8.9
2015-May-11 13:33N 43°07' E 010°09'8 8.3
2015-May-11 12:33N 43°00' E 010°16'22 6.9
2015-May-11 09:25N 42°53' E 010°44'7 0.2
2015-May-10 04:32N 42°47' E 010°40'1313.4
2015-May-10 03:32N 42°35' E 010°47'12912.9
2015-May-09 17:30N 41°08' E 012°57'3612.4
2015-May-09 14:33N 40°47' E 013°36'1413.3
2015-May-09 13:32N 40°35' E 013°45'1313.2
2015-May-09 12:33N 40°25' E 013°55'1313.0
2015-May-09 11:31N 40°14' E 014°05'209 4.5
2015-May-07 12:33N 37°02' E 015°54'1312.7
2015-May-07 11:33N 36°59' E 016°09'2613.0
2015-May-07 09:32N 36°51' E 016°40'5112.8
2015-May-07 05:33N 36°36' E 017°41'  
2015-May-05 00:26N 33°30' E 031°41'1813.4
2015-May-04 23:06N 33°26' E 032°02'713.0
2015-May-04 22:33N 33°25' E 032°10'1313.3
2015-May-04 21:33N 33°22' E 032°25'  

Dump ship's entire track history